Time;durP1;ratioP1;P1;durP2;ratioP2;P2;SDS_P1;SDS_P2;PMS_P1;PMS_P2;Temp;Humidity;BMP_temperature;BMP_pressure;BME280_temperature;BME280_humidity;BME280_pressure;Samples;Min_cycle;Max_cycle;Signal;HPM_P1;HPM_P2
2023/12/27 00:00:10;;;;;;;7.40;3.53;;;23.10;48.10;;;;;;6159043;28;81332;-56
2023/12/27 00:03:11;;;;;;;8.27;4.15;;;23.10;48.30;;;;;;6160157;28;81122;-59
2023/12/27 00:06:11;;;;;;;6.65;3.67;;;23.00;48.00;;;;;;6153968;28;80937;-57
2023/12/27 00:09:12;;;;;;;7.68;4.00;;;23.10;48.20;;;;;;6140933;28;81232;-59
2023/12/27 00:12:13;;;;;;;8.15;4.43;;;23.10;48.00;;;;;;6163079;28;82418;-56
2023/12/27 00:15:13;;;;;;;5.22;3.30;;;23.00;47.80;;;;;;6162485;28;81357;-54
2023/12/27 00:18:17;;;;;;;6.82;3.75;;;23.00;47.70;;;;;;6156766;28;81996;-53
2023/12/27 00:21:18;;;;;;;5.00;3.13;;;23.00;47.80;;;;;;6149590;28;81275;-56
2023/12/27 00:24:18;;;;;;;6.03;3.60;;;23.00;47.60;;;;;;6149061;28;81021;-55
2023/12/27 00:27:19;;;;;;;5.25;3.30;;;23.00;47.70;;;;;;6157743;28;81395;-54
2023/12/27 00:30:19;;;;;;;7.10;3.63;;;23.00;47.40;;;;;;6151259;28;84702;-56
2023/12/27 00:33:20;;;;;;;6.15;3.28;;;23.00;47.60;;;;;;6141446;28;83354;-54
2023/12/27 00:36:21;;;;;;;5.90;3.45;;;23.00;47.40;;;;;;6155214;28;81905;-56
2023/12/27 00:39:23;;;;;;;8.30;4.07;;;23.00;47.20;;;;;;6153301;28;81612;-53
2023/12/27 00:42:24;;;;;;;7.97;3.65;;;23.00;47.20;;;;;;6152233;28;81476;-54
2023/12/27 00:45:25;;;;;;;6.70;3.55;;;23.00;47.40;;;;;;6154099;28;83858;-55
2023/12/27 00:48:25;;;;;;;5.47;3.17;;;23.00;47.60;;;;;;6142867;28;82358;-47
2023/12/27 00:51:26;;;;;;;7.22;4.40;;;23.00;47.40;;;;;;6148324;28;82174;-46
2023/12/27 00:54:26;;;;;;;20.55;4.03;;;23.00;47.30;;;;;;6162280;28;80695;-47
2023/12/27 00:57:27;;;;;;;6.18;3.40;;;22.90;47.10;;;;;;6155067;28;83223;-47
2023/12/27 01:00:27;;;;;;;5.18;3.30;;;23.00;47.40;;;;;;6164453;28;81252;-48
2023/12/27 01:03:28;;;;;;;5.53;3.10;;;23.00;47.30;;;;;;6161629;28;80581;-46
2023/12/27 01:06:28;;;;;;;6.30;3.28;;;23.00;47.30;;;;;;6155529;28;83495;-49
2023/12/27 01:09:29;;;;;;;4.82;3.13;;;23.00;47.10;;;;;;6161088;28;82452;-48
2023/12/27 01:12:30;;;;;;;6.07;3.60;;;22.90;47.20;;;;;;6164575;28;80597;-47
2023/12/27 01:15:30;;;;;;;6.47;3.58;;;22.90;47.50;;;;;;6167215;28;85283;-49
2023/12/27 01:18:31;;;;;;;5.65;3.17;;;22.90;47.40;;;;;;6161974;28;81071;-48
2023/12/27 01:21:31;;;;;;;5.15;3.10;;;22.90;47.60;;;;;;6173885;28;80462;-46
2023/12/27 01:24:32;;;;;;;4.32;2.85;;;22.90;47.30;;;;;;6175707;28;81475;-48
2023/12/27 01:27:32;;;;;;;6.43;3.35;;;22.90;47.40;;;;;;6175318;28;81597;-49
2023/12/27 01:30:33;;;;;;;4.78;2.90;;;22.90;47.40;;;;;;6173631;28;81239;-46
2023/12/27 01:33:33;;;;;;;6.28;2.63;;;22.90;47.30;;;;;;6175570;28;80603;-46
2023/12/27 01:36:34;;;;;;;5.22;2.72;;;22.90;47.50;;;;;;6173586;28;80824;-48
2023/12/27 01:39:35;;;;;;;7.70;2.83;;;22.90;47.80;;;;;;6174032;28;81713;-46
2023/12/27 01:42:37;;;;;;;4.43;2.85;;;22.90;47.40;;;;;;6173770;28;80405;-47
2023/12/27 01:45:38;;;;;;;5.95;3.10;;;22.90;47.30;;;;;;6175642;28;81072;-50
2023/12/27 01:48:38;;;;;;;4.25;2.50;;;22.90;47.10;;;;;;6170026;28;81467;-47
2023/12/27 01:51:39;;;;;;;5.10;2.70;;;22.90;47.10;;;;;;6168728;28;81778;-48
2023/12/27 01:54:39;;;;;;;4.18;2.33;;;22.80;46.80;;;;;;6173179;28;82053;-47
2023/12/27 01:57:40;;;;;;;3.28;2.33;;;22.90;46.90;;;;;;6161415;28;82134;-47
2023/12/27 02:00:40;;;;;;;3.60;2.20;;;22.90;47.00;;;;;;6157474;28;82366;-46
2023/12/27 02:03:41;;;;;;;9.77;3.03;;;22.80;46.80;;;;;;6153403;28;80702;-55
2023/12/27 02:06:41;;;;;;;5.47;2.78;;;22.80;46.90;;;;;;6159762;28;80460;-51
2023/12/27 02:09:42;;;;;;;5.32;2.75;;;22.80;46.40;;;;;;6163567;28;80868;-54
2023/12/27 02:12:42;;;;;;;4.25;2.08;;;22.80;46.40;;;;;;6175039;28;91888;-55
2023/12/27 02:15:43;;;;;;;2.80;2.10;;;22.80;46.30;;;;;;6175378;28;80438;-52
2023/12/27 02:18:43;;;;;;;3.78;2.70;;;22.80;46.30;;;;;;6173654;28;83241;-56
2023/12/27 02:21:44;;;;;;;3.53;2.00;;;22.80;46.10;;;;;;6175492;28;81241;-45
2023/12/27 02:24:44;;;;;;;3.00;2.10;;;22.80;46.10;;;;;;6177148;28;80459;-46
2023/12/27 02:27:45;;;;;;;3.50;2.08;;;22.80;45.90;;;;;;6152309;28;82052;-46
2023/12/27 02:30:46;;;;;;;3.95;2.33;;;22.80;45.70;;;;;;6161259;28;83878;-46
2023/12/27 02:33:46;;;;;;;5.13;2.05;;;22.80;45.90;;;;;;6160203;28;82464;-45
2023/12/27 02:36:47;;;;;;;4.18;1.88;;;22.80;45.70;;;;;;6168584;28;80638;-49
2023/12/27 02:39:47;;;;;;;2.90;1.75;;;22.80;45.80;;;;;;6173512;28;81033;-56
2023/12/27 02:42:48;;;;;;;3.78;2.17;;;22.80;45.50;;;;;;6171781;28;83759;-56
2023/12/27 02:45:48;;;;;;;3.10;1.80;;;22.80;45.50;;;;;;6160354;28;80628;-57
2023/12/27 02:48:50;;;;;;;3.08;1.67;;;22.80;45.50;;;;;;6166083;28;83051;-56
2023/12/27 02:51:50;;;;;;;3.60;2.00;;;22.80;45.20;;;;;;6180463;28;82278;-56
2023/12/27 02:54:51;;;;;;;3.63;1.67;;;22.80;45.50;;;;;;6159242;28;80986;-56
2023/12/27 02:57:51;;;;;;;3.55;1.80;;;22.70;45.30;;;;;;6171685;28;82932;-57
2023/12/27 03:00:52;;;;;;;3.45;1.50;;;22.80;46.10;;;;;;6163266;28;80603;-55
2023/12/27 03:03:52;;;;;;;4.07;2.03;;;22.80;45.50;;;;;;6170275;28;80996;-56
2023/12/27 03:06:53;;;;;;;3.38;1.60;;;22.80;45.50;;;;;;6174222;28;84324;-58
2023/12/27 03:09:53;;;;;;;4.70;1.65;;;22.80;45.60;;;;;;6173203;28;83611;-56
2023/12/27 03:12:54;;;;;;;3.40;1.80;;;22.80;45.50;;;;;;6175003;28;80627;-54
2023/12/27 03:15:54;;;;;;;3.40;2.00;;;22.80;45.60;;;;;;6175684;28;80772;-54
2023/12/27 03:18:55;;;;;;;3.10;1.52;;;22.80;45.50;;;;;;6173285;28;81924;-53
2023/12/27 03:21:55;;;;;;;2.03;1.65;;;22.80;45.50;;;;;;6175886;28;82966;-54
2023/12/27 03:24:56;;;;;;;6.28;1.92;;;22.80;45.40;;;;;;6175576;28;80675;-55
2023/12/27 03:27:58;;;;;;;2.50;1.67;;;22.80;45.50;;;;;;6175630;28;80289;-55
2023/12/27 03:30:58;;;;;;;2.33;1.45;;;22.70;45.20;;;;;;6189545;28;83562;-56
2023/12/27 03:33:59;;;;;;;3.38;1.98;;;22.80;45.40;;;;;;6175257;28;81156;-45
2023/12/27 03:37:00;;;;;;;2.78;1.67;;;22.80;45.40;;;;;;6174795;28;80662;-44
2023/12/27 03:40:00;;;;;;;2.78;1.42;;;22.80;45.20;;;;;;6171797;28;81463;-45
2023/12/27 03:43:01;;;;;;;3.65;2.25;;;22.80;45.10;;;;;;6173466;28;83169;-48
2023/12/27 03:46:02;;;;;;;3.58;1.80;;;22.80;45.50;;;;;;6156635;28;81952;-44
2023/12/27 03:49:03;;;;;;;2.70;1.50;;;22.80;45.50;;;;;;6165113;28;81883;-46
2023/12/27 03:52:04;;;;;;;2.13;1.50;;;22.80;45.50;;;;;;6173147;28;81294;-47
2023/12/27 03:55:04;;;;;;;1.80;1.50;;;22.80;45.40;;;;;;6168187;28;80791;-47
2023/12/27 03:58:05;;;;;;;2.85;1.80;;;22.80;45.60;;;;;;6161458;28;82787;-46
2023/12/27 04:01:05;;;;;;;3.83;1.75;;;22.80;45.50;;;;;;6173692;28;81788;-45
2023/12/27 04:04:07;;;;;;;2.20;1.50;;;22.80;45.40;;;;;;6172948;28;80588;-45
2023/12/27 04:07:07;;;;;;;3.25;1.90;;;22.80;45.50;;;;;;6162168;28;82228;-46
2023/12/27 04:10:08;;;;;;;3.65;1.73;;;22.70;45.40;;;;;;6165826;28;80565;-55
2023/12/27 04:13:08;;;;;;;3.90;1.80;;;22.80;45.40;;;;;;6178359;28;80444;-55
2023/12/27 04:16:08;;;;;;;4.45;1.75;;;22.70;45.20;;;;;;6174810;28;83705;-55
2023/12/27 04:19:09;;;;;;;2.65;1.33;;;22.80;45.20;;;;;;6175166;28;82651;-53
2023/12/27 04:22:09;;;;;;;2.80;1.73;;;22.80;45.10;;;;;;6173737;28;83030;-56
2023/12/27 04:25:10;;;;;;;3.08;1.25;;;22.80;45.30;;;;;;6170640;28;83224;-53
2023/12/27 04:28:11;;;;;;;3.30;1.58;;;22.80;45.60;;;;;;6176757;28;82492;-58
2023/12/27 04:31:11;;;;;;;2.10;1.40;;;22.90;46.00;;;;;;6171417;28;80693;-59
2023/12/27 04:34:12;;;;;;;1.67;1.23;;;22.90;45.50;;;;;;6174431;28;80906;-58
2023/12/27 04:37:12;;;;;;;2.92;1.73;;;22.90;45.20;;;;;;6168237;28;81548;-58
2023/12/27 04:40:13;;;;;;;3.10;1.63;;;23.00;45.00;;;;;;6167531;28;81372;-59
2023/12/27 04:43:13;;;;;;;14.68;2.53;;;23.00;45.10;;;;;;6175236;28;81341;-59
2023/12/27 04:46:14;;;;;;;4.40;1.23;;;23.00;44.40;;;;;;6174397;28;82278;-59
2023/12/27 04:49:14;;;;;;;2.60;1.30;;;23.00;44.60;;;;;;6164524;28;81289;-58
2023/12/27 04:52:15;;;;;;;1.88;1.50;;;23.00;44.20;;;;;;6175817;28;80660;-59
2023/12/27 04:55:15;;;;;;;2.83;1.30;;;23.00;44.10;;;;;;6174196;28;81325;-58
2023/12/27 04:58:16;;;;;;;3.97;1.85;;;23.10;43.90;;;;;;6160116;28;82076;-59
2023/12/27 05:01:17;;;;;;;1.65;1.45;;;23.10;43.60;;;;;;6169734;28;80957;-60
2023/12/27 05:04:17;;;;;;;3.15;1.75;;;23.10;43.50;;;;;;6176430;28;80648;-56
2023/12/27 05:07:19;;;;;;;2.60;1.40;;;23.10;43.60;;;;;;6154403;28;83246;-45
2023/12/27 05:10:19;;;;;;;5.72;1.35;;;23.10;43.70;;;;;;6177689;28;80202;-46
2023/12/27 05:13:20;;;;;;;2.90;1.50;;;23.10;43.70;;;;;;6175784;28;83617;-46
2023/12/27 05:16:20;;;;;;;2.15;1.40;;;23.10;43.60;;;;;;6177484;28;81688;-49
2023/12/27 05:19:21;;;;;;;3.08;1.73;;;23.10;43.10;;;;;;6168669;28;81147;-45
2023/12/27 05:22:22;;;;;;;2.47;1.23;;;23.20;43.40;;;;;;6156723;28;80832;-47
2023/12/27 05:25:23;;;;;;;2.58;1.13;;;23.10;42.50;;;;;;6177210;28;80444;-57
2023/12/27 05:28:24;;;;;;;1.90;1.67;;;23.20;42.90;;;;;;6169501;28;82504;-55
2023/12/27 05:31:24;;;;;;;2.08;1.35;;;23.20;42.80;;;;;;6158734;28;81364;-57
2023/12/27 05:34:25;;;;;;;3.83;1.67;;;23.20;42.90;;;;;;6160237;28;80746;-57
2023/12/27 05:37:25;;;;;;;2.45;1.42;;;23.20;42.70;;;;;;6161116;28;81955;-58
2023/12/27 05:40:26;;;;;;;2.17;1.15;;;23.20;42.50;;;;;;6136988;28;83474;-54
2023/12/27 05:43:26;;;;;;;1.77;1.27;;;23.20;42.60;;;;;;6154341;28;80372;-44
2023/12/27 05:46:27;;;;;;;4.20;1.63;;;23.20;42.30;;;;;;6153611;28;81331;-47
2023/12/27 05:49:27;;;;;;;1.33;0.93;;;23.20;42.60;;;;;;6159063;28;81308;-50
2023/12/27 05:52:28;;;;;;;1.92;1.20;;;23.20;42.00;;;;;;6163026;28;80988;-46
2023/12/27 05:55:29;;;;;;;4.22;1.75;;;23.20;42.20;;;;;;6169005;28;80757;-46
2023/12/27 05:58:29;;;;;;;2.80;1.30;;;23.20;41.80;;;;;;6165525;28;82000;-47
2023/12/27 06:01:30;;;;;;;2.78;1.20;;;23.10;41.80;;;;;;6163140;28;80859;-47
2023/12/27 06:04:30;;;;;;;3.50;1.00;;;23.10;42.30;;;;;;6159884;28;80965;-49
2023/12/27 06:07:31;;;;;;;1.85;1.50;;;23.10;42.20;;;;;;6153029;28;81005;-48
2023/12/27 06:10:32;;;;;;;3.45;1.35;;;23.20;42.60;;;;;;6156524;28;82115;-50
2023/12/27 06:13:32;;;;;;;1.80;1.48;;;23.20;42.40;;;;;;6158368;28;80811;-48
2023/12/27 06:16:33;;;;;;;2.72;1.50;;;23.10;41.70;;;;;;6171317;28;80760;-51
2023/12/27 06:19:34;;;;;;;2.13;1.35;;;23.20;42.20;;;;;;6168282;28;80864;-58
2023/12/27 06:22:35;;;;;;;2.85;1.40;;;23.20;42.90;;;;;;6161432;28;80763;-53
2023/12/27 06:25:35;;;;;;;2.97;1.70;;;23.20;42.80;;;;;;6173895;28;84848;-53
2023/12/27 06:28:36;;;;;;;3.72;1.27;;;23.30;43.10;;;;;;6170409;28;80758;-48
2023/12/27 06:31:36;;;;;;;3.25;1.25;;;23.30;43.60;;;;;;6151487;28;80623;-48
2023/12/27 06:34:37;;;;;;;4.57;1.63;;;23.30;43.70;;;;;;6158283;28;80636;-48
2023/12/27 06:37:37;;;;;;;2.10;1.20;;;23.30;43.90;;;;;;6167659;28;80382;-55
2023/12/27 06:40:38;;;;;;;4.45;1.42;;;23.30;43.90;;;;;;6171971;28;80619;-56
2023/12/27 06:43:38;;;;;;;3.47;1.60;;;23.30;44.10;;;;;;6170208;28;81630;-54
2023/12/27 06:46:39;;;;;;;4.13;1.17;;;23.30;44.10;;;;;;6173519;28;81082;-56
2023/12/27 06:49:39;;;;;;;10.02;1.52;;;23.30;44.20;;;;;;6173759;28;80589;-55
2023/12/27 06:52:40;;;;;;;1.75;1.17;;;23.30;44.30;;;;;;6170174;28;80881;-47
2023/12/27 06:55:40;;;;;;;2.70;1.40;;;23.30;44.60;;;;;;6169168;28;80600;-46
2023/12/27 06:58:41;;;;;;;3.22;1.33;;;23.30;44.30;;;;;;6163982;28;80954;-46
2023/12/27 07:01:42;;;;;;;3.90;1.88;;;23.30;44.90;;;;;;6174897;28;80495;-47
2023/12/27 07:04:43;;;;;;;5.40;1.50;;;23.30;44.40;;;;;;6174756;28;80601;-50
2023/12/27 07:07:43;;;;;;;3.72;1.67;;;23.40;44.80;;;;;;6165688;28;80490;-47
2023/12/27 07:10:44;;;;;;;6.38;1.88;;;23.40;44.90;;;;;;6178107;28;82400;-49
2023/12/27 07:13:46;;;;;;;2.15;1.60;;;23.40;45.00;;;;;;6157716;28;82885;-54
2023/12/27 07:16:46;;;;;;;3.22;1.42;;;23.40;45.00;;;;;;6163293;28;82304;-55
2023/12/27 07:19:47;;;;;;;2.00;1.33;;;23.50;45.10;;;;;;6151468;28;81134;-56
2023/12/27 07:22:48;;;;;;;2.95;1.60;;;23.50;45.30;;;;;;6169139;28;81909;-58
2023/12/27 07:25:49;;;;;;;4.18;1.20;;;23.50;45.40;;;;;;6158168;28;80882;-52
2023/12/27 07:28:49;;;;;;;2.63;1.45;;;23.50;45.80;;;;;;6171814;28;80573;-56
2023/12/27 07:31:50;;;;;;;3.00;1.40;;;23.50;47.00;;;;;;6171487;28;80519;-53
2023/12/27 07:34:57;;;;;;;4.47;1.38;;;23.60;46.50;;;;;;6168579;28;81196;-51
2023/12/27 07:37:57;;;;;;;3.10;1.58;;;23.60;46.40;;;;;;6171628;28;80467;-51
2023/12/27 07:40:58;;;;;;;3.55;1.40;;;23.60;46.20;;;;;;6172005;28;81025;-49
2023/12/27 07:43:58;;;;;;;4.35;1.45;;;23.60;46.00;;;;;;6174028;28;80052;-53
2023/12/27 07:46:59;;;;;;;7.07;2.00;;;23.70;46.10;;;;;;6171982;28;80934;-49
2023/12/27 07:49:59;;;;;;;3.53;1.50;;;23.80;45.90;;;;;;6164567;28;80593;-47
2023/12/27 07:53:00;;;;;;;4.57;1.40;;;23.80;45.60;;;;;;6178044;28;81574;-53
2023/12/27 07:56:00;;;;;;;3.10;1.63;;;23.90;45.60;;;;;;6175331;28;83408;-48
2023/12/27 07:59:03;;;;;;;6.30;4.00;;;23.90;45.80;;;;;;6164724;28;80451;-53
2023/12/27 08:02:04;;;;;;;11.65;4.32;;;23.90;45.80;;;;;;6157455;28;80825;-50
2023/12/27 08:05:04;;;;;;;8.95;4.32;;;24.00;46.10;;;;;;6155049;28;80840;-50
2023/12/27 08:08:05;;;;;;;16.65;6.50;;;24.00;45.70;;;;;;6157287;28;92194;-53
2023/12/27 08:11:05;;;;;;;16.70;8.00;;;24.10;45.60;;;;;;6176564;28;81497;-49
2023/12/27 08:14:06;;;;;;;24.00;9.18;;;24.10;45.10;;;;;;6177111;28;80641;-53
2023/12/27 08:17:08;;;;;;;21.83;9.30;;;24.10;44.80;;;;;;6165401;28;83224;-54
2023/12/27 08:20:08;;;;;;;19.70;8.40;;;24.20;45.50;;;;;;6177686;28;81937;-57
2023/12/27 08:23:09;;;;;;;24.10;8.85;;;24.20;45.80;;;;;;6158471;28;80685;-55
2023/12/27 08:26:10;;;;;;;22.70;8.38;;;24.30;46.00;;;;;;6165311;28;80715;-57
2023/12/27 08:29:11;;;;;;;19.40;7.40;;;24.30;46.10;;;;;;6173830;28;80945;-51
2023/12/27 08:32:12;;;;;;;15.68;6.07;;;24.40;46.00;;;;;;6168574;28;81508;-52
2023/12/27 08:35:12;;;;;;;13.57;6.13;;;24.40;45.70;;;;;;6167151;28;81010;-48
2023/12/27 08:38:13;;;;;;;10.90;5.95;;;24.50;45.80;;;;;;6173288;28;80753;-56
2023/12/27 08:41:13;;;;;;;11.57;6.30;;;24.50;45.70;;;;;;6175192;28;85501;-51
2023/12/27 08:44:14;;;;;;;16.15;4.80;;;24.60;45.90;;;;;;6174771;28;81483;-56
2023/12/27 08:47:14;;;;;;;14.93;4.82;;;24.60;45.80;;;;;;6174810;28;82142;-56
2023/12/27 08:50:15;;;;;;;8.75;4.63;;;24.70;45.60;;;;;;6159410;28;80607;-58
2023/12/27 08:53:15;;;;;;;10.73;4.82;;;24.70;45.80;;;;;;6166396;28;80988;-54
2023/12/27 08:56:16;;;;;;;12.82;4.28;;;24.80;45.30;;;;;;6165426;28;82260;-54
2023/12/27 08:59:16;;;;;;;9.20;3.95;;;24.80;45.30;;;;;;6159172;28;86051;-57
2023/12/27 09:02:16;;;;;;;7.70;4.10;;;24.80;45.50;;;;;;6160282;28;83272;-59
2023/12/27 09:05:17;;;;;;;10.38;3.70;;;24.90;45.50;;;;;;6172771;28;80533;-59
2023/12/27 09:08:18;;;;;;;12.77;3.33;;;24.90;45.30;;;;;;6174641;28;80867;-58
2023/12/27 09:11:18;;;;;;;9.35;3.20;;;25.00;45.10;;;;;;6170852;28;80579;-56
2023/12/27 09:14:19;;;;;;;7.60;2.97;;;25.00;45.20;;;;;;6164261;28;81602;-56
2023/12/27 09:17:19;;;;;;;6.43;2.80;;;25.00;44.70;;;;;;6170317;28;80460;-57
2023/12/27 09:20:20;;;;;;;10.82;3.10;;;25.10;44.60;;;;;;6171249;28;80617;-57
2023/12/27 09:23:20;;;;;;;6.15;2.80;;;25.00;42.70;;;;;;6172661;28;82483;-49
2023/12/27 09:26:21;;;;;;;5.82;2.20;;;24.80;40.70;;;;;;6166740;28;81396;-49
2023/12/27 09:29:22;;;;;;;9.40;2.38;;;24.70;38.20;;;;;;6168609;28;82422;-50
2023/12/27 09:32:22;;;;;;;4.72;1.95;;;24.40;36.90;;;;;;6166189;28;81437;-47
2023/12/27 09:35:23;;;;;;;5.00;2.30;;;24.30;36.70;;;;;;6158352;28;80847;-52
2023/12/27 09:38:24;;;;;;;8.52;2.10;;;24.30;35.60;;;;;;6168448;28;82011;-48
2023/12/27 09:41:24;;;;;;;9.52;2.22;;;24.30;35.30;;;;;;6165180;28;84428;-53
2023/12/27 09:44:25;;;;;;;7.38;1.85;;;24.20;35.20;;;;;;6157736;28;81435;-50
2023/12/27 09:47:25;;;;;;;4.63;2.00;;;24.10;34.20;;;;;;6165035;28;81616;-47
2023/12/27 09:50:26;;;;;;;5.78;2.33;;;24.00;34.20;;;;;;6161082;28;80436;-48
2023/12/27 09:53:26;;;;;;;6.05;2.15;;;24.00;34.00;;;;;;6172096;28;80493;-53
2023/12/27 09:56:27;;;;;;;7.70;3.38;;;24.00;34.20;;;;;;6169042;28;80550;-49
2023/12/27 09:59:27;;;;;;;9.55;2.63;;;23.80;33.40;;;;;;6141458;28;80503;-48
2023/12/27 10:02:31;;;;;;;6.25;2.17;;;23.70;33.60;;;;;;6164369;28;81249;-49
2023/12/27 10:05:31;;;;;;;5.40;2.10;;;23.60;33.50;;;;;;6148888;28;81317;-52
2023/12/27 10:08:31;;;;;;;6.07;2.38;;;23.60;33.60;;;;;;6149687;28;80264;-49
2023/12/27 10:11:32;;;;;;;4.35;1.55;;;23.40;32.90;;;;;;6152574;28;81517;-50
2023/12/27 10:14:33;;;;;;;14.10;6.68;;;23.30;33.40;;;;;;6163765;28;81431;-50
2023/12/27 10:17:33;;;;;;;25.45;11.50;;;23.20;33.90;;;;;;6165000;28;80612;-48
2023/12/27 10:20:36;;;;;;;19.85;9.65;;;23.20;33.10;;;;;;6163070;28;82898;-47
2023/12/27 10:23:36;;;;;;;29.98;14.38;;;23.10;32.70;;;;;;6170706;28;83193;-46
2023/12/27 10:26:37;;;;;;;39.97;18.35;;;23.00;32.20;;;;;;6164880;28;84905;-49
2023/12/27 10:29:38;;;;;;;22.05;11.25;;;23.00;33.00;;;;;;6168479;28;84185;-46
2023/12/27 10:32:39;;;;;;;18.08;8.63;;;23.10;33.40;;;;;;6166863;28;85849;-47
2023/12/27 10:35:39;;;;;;;11.10;5.90;;;23.20;33.10;;;;;;6172627;28;82976;-56
2023/12/27 10:38:40;;;;;;;9.18;4.28;;;23.20;32.30;;;;;;6174303;28;81017;-58
2023/12/27 10:41:42;;;;;;;9.48;3.85;;;23.20;33.10;;;;;;6164897;28;83446;-58
2023/12/27 10:44:42;;;;;;;7.85;3.38;;;23.30;32.90;;;;;;6176550;28;80921;-57
2023/12/27 10:47:42;;;;;;;5.60;2.40;;;23.30;33.30;;;;;;6167763;28;81080;-55
2023/12/27 10:50:43;;;;;;;10.75;2.75;;;23.40;33.10;;;;;;6167785;28;80605;-55
2023/12/27 10:53:43;;;;;;;4.35;2.03;;;23.40;33.10;;;;;;6165741;28;80938;-56
2023/12/27 10:56:44;;;;;;;5.57;2.10;;;23.50;32.60;;;;;;6166973;28;80954;-56
2023/12/27 10:59:47;;;;;;;4.05;1.90;;;23.50;33.00;;;;;;6161762;28;82677;-60
2023/12/27 11:02:47;;;;;;;5.10;1.67;;;23.50;32.90;;;;;;6161307;28;80593;-54
2023/12/27 11:05:48;;;;;;;2.95;1.58;;;23.50;33.20;;;;;;6151134;28;80869;-57
2023/12/27 11:08:48;;;;;;;3.25;2.00;;;23.50;32.70;;;;;;6159443;28;80487;-57
2023/12/27 11:11:49;;;;;;;135.75;57.78;;;23.50;32.70;;;;;;6169473;28;80680;-56
2023/12/27 11:14:49;;;;;;;121.25;51.33;;;23.50;33.10;;;;;;6169185;28;84815;-56
2023/12/27 11:17:50;;;;;;;49.63;23.40;;;23.60;32.50;;;;;;6164444;28;83232;-56
2023/12/27 11:20:51;;;;;;;75.15;33.25;;;23.60;32.70;;;;;;6159927;28;83718;-57
2023/12/27 11:23:51;;;;;;;135.88;56.13;;;23.60;32.50;;;;;;6165436;28;83497;-58
2023/12/27 11:26:52;;;;;;;94.47;37.78;;;23.60;32.40;;;;;;6154822;28;83406;-58
2023/12/27 11:29:52;;;;;;;84.47;33.33;;;23.70;32.60;;;;;;6168882;28;83276;-56
2023/12/27 11:32:53;;;;;;;154.10;63.15;;;23.70;32.40;;;;;;6168647;28;84012;-57
2023/12/27 11:35:54;;;;;;;147.40;58.55;;;23.70;32.00;;;;;;6170454;28;84207;-58
2023/12/27 11:38:54;;;;;;;113.28;45.85;;;23.80;32.30;;;;;;6173024;28;85308;-55
2023/12/27 11:41:55;;;;;;;99.05;41.35;;;23.70;32.40;;;;;;6165430;28;83070;-57
2023/12/27 11:44:57;;;;;;;87.40;34.90;;;23.80;32.70;;;;;;6171157;28;83286;-51
2023/12/27 11:47:58;;;;;;;72.43;29.42;;;24.00;33.10;;;;;;6168897;28;84656;-56
2023/12/27 11:50:59;;;;;;;65.70;27.83;;;24.10;33.30;;;;;;6166636;28;82952;-48
2023/12/27 11:54:00;;;;;;;71.00;27.27;;;24.30;33.70;;;;;;6170324;28;83135;-47
2023/12/27 11:57:00;;;;;;;53.28;23.35;;;24.40;34.00;;;;;;6167545;28;82948;-51
2023/12/27 12:00:01;;;;;;;48.78;20.75;;;24.50;34.60;;;;;;6167024;28;83572;-48
2023/12/27 12:03:01;;;;;;;44.95;16.92;;;24.70;35.00;;;;;;6163604;28;83255;-48
2023/12/27 12:06:02;;;;;;;44.22;17.67;;;24.70;35.40;;;;;;6162620;28;87636;-49
2023/12/27 12:09:02;;;;;;;43.10;16.58;;;24.80;35.90;;;;;;6171058;28;82946;-47
2023/12/27 12:12:03;;;;;;;32.83;14.43;;;24.90;36.00;;;;;;6171908;28;84898;-48
2023/12/27 12:15:03;;;;;;;28.67;13.30;;;24.90;36.10;;;;;;6169673;28;83258;-47
2023/12/27 12:18:04;;;;;;;25.50;10.00;;;25.00;36.80;;;;;;6161395;28;84483;-47
2023/12/27 12:21:04;;;;;;;14.13;6.95;;;25.30;35.10;;;;;;6161904;28;84095;-50
2023/12/27 12:24:04;;;;;;;17.73;6.40;;;25.40;32.30;;;;;;6163269;28;83149;-47
2023/12/27 12:27:05;;;;;;;9.60;4.38;;;25.50;31.50;;;;;;6150354;28;80568;-59
2023/12/27 12:30:06;;;;;;;6.65;2.75;;;25.60;30.70;;;;;;6168488;28;82192;-59
2023/12/27 12:33:06;;;;;;;9.73;3.30;;;25.70;30.40;;;;;;6165866;28;80583;-60
2023/12/27 12:36:07;;;;;;;8.18;3.05;;;25.70;31.00;;;;;;6166668;28;80950;-58
2023/12/27 12:39:07;;;;;;;5.63;2.15;;;25.70;31.70;;;;;;6156919;28;80872;-60
2023/12/27 12:42:08;;;;;;;6.53;2.50;;;25.70;30.80;;;;;;6156994;28;80822;-61
2023/12/27 12:45:09;;;;;;;6.95;2.50;;;25.60;30.10;;;;;;6155557;28;80303;-59
2023/12/27 12:48:09;;;;;;;6.07;2.20;;;25.50;29.90;;;;;;6172335;28;81668;-60
2023/12/27 12:51:10;;;;;;;5.57;2.40;;;25.50;29.90;;;;;;6173510;28;80208;-51
2023/12/27 12:54:10;;;;;;;7.85;2.30;;;25.50;29.80;;;;;;6136498;28;80557;-55
2023/12/27 12:57:11;;;;;;;5.50;2.58;;;25.70;30.30;;;;;;6167404;28;84390;-56
2023/12/27 13:00:11;;;;;;;7.75;2.70;;;25.80;30.00;;;;;;6138868;28;83410;-51
2023/12/27 13:03:12;;;;;;;4.00;2.53;;;26.00;29.90;;;;;;6169893;28;83678;-53
2023/12/27 13:06:15;;;;;;;7.75;2.90;;;26.00;29.80;;;;;;6162829;28;82241;-59
2023/12/27 13:09:17;;;;;;;6.22;2.80;;;26.10;29.80;;;;;;6142022;28;86194;-59
2023/12/27 13:12:18;;;;;;;5.07;2.63;;;26.10;29.70;;;;;;6154443;28;82552;-56
2023/12/27 13:15:19;;;;;;;5.47;2.58;;;26.10;29.80;;;;;;6164044;28;80372;-56
2023/12/27 13:18:20;;;;;;;8.05;3.10;;;26.10;29.80;;;;;;6156540;28;80607;-58
2023/12/27 13:21:21;;;;;;;6.50;2.90;;;25.90;29.70;;;;;;6173310;28;81177;-51
2023/12/27 13:24:21;;;;;;;5.07;2.85;;;25.80;29.90;;;;;;6164232;28;80530;-53
2023/12/27 13:27:22;;;;;;;7.25;2.95;;;25.70;29.90;;;;;;6166070;28;80786;-50
2023/12/27 13:30:22;;;;;;;7.65;3.35;;;25.60;30.00;;;;;;6161642;28;80534;-53
2023/12/27 13:33:24;;;;;;;6.80;3.65;;;25.50;30.20;;;;;;6168577;28;85012;-51
2023/12/27 13:36:26;;;;;;;6.97;3.60;;;25.40;30.20;;;;;;6164258;28;82140;-49
2023/12/27 13:39:26;;;;;;;7.97;3.40;;;25.10;30.80;;;;;;6146283;28;83932;-58
2023/12/27 13:42:27;;;;;;;6.85;3.30;;;24.90;30.80;;;;;;6164139;28;80728;-58
2023/12/27 13:45:27;;;;;;;7.55;3.35;;;24.70;30.90;;;;;;6158006;28;81091;-57
2023/12/27 13:48:28;;;;;;;9.23;2.97;;;24.40;31.10;;;;;;6159330;28;81852;-58
2023/12/27 13:51:28;;;;;;;11.02;3.50;;;24.30;31.50;;;;;;6152382;28;81118;-58
2023/12/27 13:54:29;;;;;;;9.70;3.10;;;24.10;31.60;;;;;;6154136;28;81690;-58
2023/12/27 13:57:29;;;;;;;8.85;4.05;;;23.90;31.80;;;;;;6154005;28;85043;-57
2023/12/27 14:00:30;;;;;;;8.45;3.72;;;23.70;32.00;;;;;;6142077;28;84564;-61
2023/12/27 14:03:32;;;;;;;14.63;3.95;;;23.80;33.60;;;;;;6142318;28;80862;-55
2023/12/27 14:06:32;;;;;;;8.02;3.00;;;23.90;34.50;;;;;;6150176;28;81043;-51
2023/12/27 14:09:33;;;;;;;10.02;3.13;;;23.90;35.00;;;;;;6154539;28;80894;-55
2023/12/27 14:12:35;;;;;;;9.32;2.90;;;23.90;35.50;;;;;;6148846;28;85536;-53
2023/12/27 14:15:36;;;;;;;9.30;2.58;;;24.00;36.50;;;;;;6174383;28;80559;-56
2023/12/27 14:18:36;;;;;;;6.38;3.28;;;24.00;36.60;;;;;;6162170;28;80892;-47
2023/12/27 14:21:37;;;;;;;8.52;2.75;;;24.10;37.10;;;;;;6146042;28;82497;-52
2023/12/27 14:24:37;;;;;;;8.73;3.28;;;24.10;37.60;;;;;;6165965;28;81494;-48
2023/12/27 14:27:38;;;;;;;6.07;2.72;;;24.00;37.40;;;;;;6150325;28;81166;-46
2023/12/27 14:30:38;;;;;;;3.95;2.47;;;24.10;37.90;;;;;;6155168;28;81164;-49
2023/12/27 14:33:39;;;;;;;7.30;2.60;;;24.00;38.40;;;;;;6156895;28;81813;-49
2023/12/27 14:36:40;;;;;;;5.57;2.53;;;24.00;38.40;;;;;;6146705;28;80544;-51
2023/12/27 14:39:40;;;;;;;6.13;2.33;;;24.00;38.40;;;;;;6145782;28;81296;-48
2023/12/27 14:42:42;;;;;;;11.15;3.50;;;24.00;38.50;;;;;;6142294;28;85410;-53
2023/12/27 14:45:43;;;;;;;4.78;3.20;;;24.00;38.60;;;;;;6159280;28;80901;-48
2023/12/27 14:48:43;;;;;;;4.47;2.58;;;24.00;38.60;;;;;;6152709;28;81242;-50
2023/12/27 14:51:43;;;;;;;4.45;2.40;;;24.00;38.70;;;;;;6155347;28;81052;-51
2023/12/27 14:54:44;;;;;;;5.93;3.45;;;24.00;39.00;;;;;;6140455;28;80896;-52
2023/12/27 14:57:44;;;;;;;8.65;2.90;;;23.90;39.00;;;;;;6140940;28;80893;-47
2023/12/27 15:00:45;;;;;;;5.93;2.75;;;24.00;38.80;;;;;;6154527;28;81567;-50
2023/12/27 15:03:45;;;;;;;4.65;2.60;;;24.00;38.80;;;;;;6160862;28;82144;-49
2023/12/27 15:06:46;;;;;;;6.60;2.70;;;24.10;38.90;;;;;;6150739;28;86844;-51
2023/12/27 15:09:46;;;;;;;7.53;3.10;;;24.10;39.10;;;;;;6148974;28;85112;-48
2023/12/27 15:12:47;;;;;;;9.05;2.35;;;24.10;39.30;;;;;;6167556;28;80869;-50
2023/12/27 15:15:47;;;;;;;9.43;2.30;;;24.20;39.50;;;;;;6174115;28;81069;-50
2023/12/27 15:18:48;;;;;;;16.33;4.05;;;24.20;39.60;;;;;;6174253;28;81161;-49
2023/12/27 15:21:48;;;;;;;5.88;2.35;;;24.30;39.80;;;;;;6174808;28;80386;-49
2023/12/27 15:24:49;;;;;;;6.32;2.67;;;24.30;39.50;;;;;;6166931;28;81202;-53
2023/12/27 15:27:49;;;;;;;6.72;2.60;;;24.30;39.60;;;;;;6166344;28;80437;-50
2023/12/27 15:30:50;;;;;;;5.07;2.63;;;24.30;39.70;;;;;;6170532;28;82771;-52
2023/12/27 15:33:51;;;;;;;5.55;2.30;;;24.30;39.70;;;;;;6173702;28;83252;-53